Time;durP1;ratioP1;P1;durP2;ratioP2;P2;SDS_P1;SDS_P2;PMS_P1;PMS_P2;Temp;Humidity;BMP_temperature;BMP_pressure;BME280_temperature;BME280_humidity;BME280_pressure;Samples;Min_cycle;Max_cycle;Signal;HPM_P1;HPM_P2
2022/11/16 00:01:12;;;;;;;7.78;5.80;;;;;;;9.13;83.32;97562.72;5009674;28;20061;-84
2022/11/16 00:03:38;;;;;;;11.52;6.32;;;;;;;9.16;82.93;97576.25;5023029;28;20026;-83
2022/11/16 00:06:05;;;;;;;8.73;6.35;;;;;;;9.22;82.62;97569.06;5022743;28;20532;-84
2022/11/16 00:08:34;;;;;;;6.20;5.60;;;;;;;9.30;82.63;97579.16;5020351;28;20060;-84
2022/11/16 00:11:18;;;;;;;8.80;6.25;;;;;;;9.27;82.66;97561.84;5000761;28;20032;-84
2022/11/16 00:13:43;;;;;;;16.40;7.78;;;;;;;9.12;82.67;97553.13;5018666;28;20029;-84
2022/11/16 00:16:16;;;;;;;8.25;6.05;;;;;;;9.24;82.10;97550.97;5020444;28;21288;-83
2022/11/16 00:18:43;;;;;;;8.00;5.60;;;;;;;9.24;82.23;97561.63;5020041;28;20108;-83
2022/11/16 00:21:09;;;;;;;5.88;5.25;;;;;;;9.12;82.81;97555.78;5020798;28;20053;-84
2022/11/16 00:23:37;;;;;;;11.00;5.85;;;;;;;9.21;82.67;97554.97;5004855;28;20033;-84
2022/11/16 00:26:08;;;;;;;8.27;6.30;;;;;;;9.21;82.03;97549.63;5020042;28;20036;-84
2022/11/16 00:28:34;;;;;;;7.40;6.25;;;;;;;9.26;82.12;97554.16;5022157;28;20025;-83
2022/11/16 00:31:02;;;;;;;8.13;5.72;;;;;;;9.21;82.31;97564.81;5016630;28;20033;-84
2022/11/16 00:33:27;;;;;;;9.00;6.65;;;;;;;9.20;82.48;97558.69;5007117;28;20504;-84
2022/11/16 00:35:53;;;;;;;9.63;6.15;;;;;;;9.12;82.81;97553.91;5019873;28;20025;-84
2022/11/16 00:38:19;;;;;;;7.57;5.95;;;;;;;9.13;82.92;97563.47;5020259;28;20116;-84
2022/11/16 00:40:44;;;;;;;7.80;6.13;;;;;;;9.31;81.78;97573.56;5024390;28;20539;-84
2022/11/16 00:43:10;;;;;;;8.45;5.63;;;;;;;9.32;82.20;97563.72;5005509;28;20029;-83
2022/11/16 00:45:37;;;;;;;8.60;6.30;;;;;;;9.16;83.06;97567.47;5019947;28;20116;-83
2022/11/16 00:48:02;;;;;;;8.10;6.50;;;;;;;9.19;81.75;97541.13;5002137;28;20076;-84
2022/11/16 00:50:28;;;;;;;7.57;5.72;;;;;;;9.13;82.29;97542.19;5004075;28;20029;-84
2022/11/16 00:52:53;;;;;;;14.50;7.53;;;;;;;9.11;82.15;97559.53;4990191;28;20037;-84
2022/11/16 00:55:18;;;;;;;9.13;5.70;;;;;;;9.16;82.62;97554.16;5020979;28;20033;-84
2022/11/16 00:57:44;;;;;;;7.88;5.50;;;;;;;9.17;82.03;97547.78;5018351;28;20034;-84
2022/11/16 01:00:11;;;;;;;8.43;6.10;;;;;;;9.21;82.55;97556.81;5019513;28;20108;-83
2022/11/16 01:02:37;;;;;;;7.38;5.75;;;;;;;9.15;82.61;97539.28;5023811;28;20460;-84
2022/11/16 01:05:03;;;;;;;10.50;6.93;;;;;;;9.28;81.46;97538.69;5018485;28;20099;-83
2022/11/16 01:07:28;;;;;;;12.40;7.93;;;;;;;9.05;83.02;97546.22;5021737;28;20034;-83
2022/11/16 01:09:53;;;;;;;6.75;5.95;;;;;;;9.02;82.89;97525.47;5004132;28;20048;-84
2022/11/16 01:12:19;;;;;;;8.38;6.50;;;;;;;9.10;82.77;97547.25;5019784;28;20269;-84
2022/11/16 01:14:46;;;;;;;7.72;6.22;;;;;;;9.17;82.30;97542.47;4996498;28;20068;-84
2022/11/16 01:17:12;;;;;;;7.90;6.00;;;;;;;9.09;82.16;97546.47;5020851;28;20039;-83
2022/11/16 01:19:38;;;;;;;12.68;8.35;;;;;;;8.74;83.95;97551.84;5018423;28;20032;-84
2022/11/16 01:22:03;;;;;;;12.25;7.72;;;;;;;8.57;84.94;97549.47;5023995;28;20030;-84
2022/11/16 01:24:29;;;;;;;7.45;6.30;;;;;;;8.99;83.76;97547.31;5023533;28;20033;-84
2022/11/16 01:26:58;;;;;;;7.13;6.15;;;;;;;8.99;83.05;97525.22;5018533;28;20366;-84
2022/11/16 01:29:24;;;;;;;11.15;7.78;;;;;;;8.87;83.25;97530.00;5004295;28;20059;-84
2022/11/16 01:31:50;;;;;;;11.38;8.05;;;;;;;8.79;84.55;97528.72;5023025;28;20033;-85
2022/11/16 01:34:16;;;;;;;10.27;6.25;;;;;;;8.88;83.56;97521.78;5005571;28;20079;-84
2022/11/16 01:36:41;;;;;;;9.07;5.90;;;;;;;9.14;82.93;97524.34;5004317;28;20114;-84
2022/11/16 01:39:07;;;;;;;7.43;5.72;;;;;;;9.05;82.30;97502.84;5021382;28;20018;-85
2022/11/16 01:41:33;;;;;;;7.32;5.85;;;;;;;9.09;82.75;97514.53;5004194;28;20493;-84
2022/11/16 01:44:04;;;;;;;6.65;5.53;;;;;;;9.13;82.68;97518.22;5007144;28;20029;-84
2022/11/16 01:46:30;;;;;;;7.20;6.22;;;;;;;9.19;82.73;97521.69;5021780;28;20108;-84
2022/11/16 01:49:11;;;;;;;9.18;6.03;;;;;;;9.13;82.46;97507.59;5022372;28;20432;-84
2022/11/16 01:51:40;;;;;;;7.18;5.65;;;;;;;9.05;82.54;97516.13;5027369;28;20044;-84
2022/11/16 01:54:08;;;;;;;7.18;5.45;;;;;;;9.14;82.12;97501.22;5023018;28;20454;-84
2022/11/16 01:56:37;;;;;;;7.85;5.57;;;;;;;9.15;82.43;97512.66;5028399;28;20033;-84
2022/11/16 01:59:04;;;;;;;10.30;6.18;;;;;;;9.12;82.60;97497.22;5036607;28;20397;-84
2022/11/16 02:01:29;;;;;;;8.30;5.85;;;;;;;9.07;82.98;97509.47;5011121;28;20485;-84
2022/11/16 02:03:54;;;;;;;10.32;6.57;;;;;;;9.05;82.42;97500.97;5007122;28;20049;-84
2022/11/16 02:06:44;;;;;;;11.10;6.18;;;;;;;8.98;82.99;97489.00;5006544;28;20048;-84
2022/11/16 02:12:18;;;;;;;9.57;6.80;;;;;;;8.96;82.91;97504.44;5024236;28;20111;-84
2022/11/16 02:15:03;;;;;;;10.45;6.50;;;;;;;8.95;83.01;97481.59;5020059;28;20031;-84
2022/11/16 02:18:00;;;;;;;8.88;6.63;;;;;;;9.09;82.57;97492.47;5023123;28;20393;-84
2022/11/16 02:21:01;;;;;;;8.35;5.85;;;;;;;9.11;82.97;97488.44;5025788;28;20412;-84
2022/11/16 02:23:42;;;;;;;19.13;8.95;;;;;;;8.71;84.93;97486.72;5018763;28;20041;-84
2022/11/16 02:26:27;;;;;;;8.15;6.28;;;;;;;8.84;84.37;97488.81;5037813;28;20115;-84
2022/11/16 02:29:26;;;;;;;11.35;6.97;;;;;;;8.62;84.93;97484.84;5025665;28;20091;-84
2022/11/16 02:32:01;;;;;;;13.10;8.93;;;;;;;8.64;85.30;97494.16;5025879;28;20029;-83
2022/11/16 02:34:32;;;;;;;9.13;6.55;;;;;;;8.39;86.05;97475.56;5021190;28;20065;-83
2022/11/16 02:37:00;;;;;;;15.52;9.07;;;;;;;8.36;87.35;97483.28;5019295;28;20440;-83
2022/11/16 02:39:29;;;;;;;15.02;8.88;;;;;;;8.06;88.82;97486.75;5027052;28;20454;-83
2022/11/16 02:41:58;;;;;;;14.95;8.07;;;;;;;8.53;86.12;97491.78;4993829;28;20029;-83
2022/11/16 02:44:30;;;;;;;7.88;6.32;;;;;;;8.71;84.89;97499.22;5024632;28;20413;-83
2022/11/16 02:47:02;;;;;;;16.75;8.35;;;;;;;8.62;85.32;97496.28;5023545;28;20087;-83
2022/11/16 02:49:32;;;;;;;9.13;6.88;;;;;;;8.77;84.16;97482.97;5017524;28;20025;-83
2022/11/16 02:51:58;;;;;;;8.38;5.68;;;;;;;8.84;83.38;97488.00;5025125;28;20025;-83
2022/11/16 02:54:23;;;;;;;11.48;7.80;;;;;;;8.50;86.88;97485.13;5021546;28;20528;-83
2022/11/16 02:57:01;;;;;;;10.90;8.35;;;;;;;8.69;85.15;97488.03;5023427;28;20029;-83
2022/11/16 02:59:34;;;;;;;10.77;8.45;;;;;;;8.68;85.69;97481.13;5023361;28;20028;-83
2022/11/16 03:02:12;;;;;;;8.45;5.97;;;;;;;8.70;84.44;97471.00;5021448;28;20037;-83
2022/11/16 03:04:51;;;;;;;8.57;6.22;;;;;;;8.95;82.99;97486.91;5023419;28;20036;-84
2022/11/16 03:07:21;;;;;;;13.18;8.82;;;;;;;8.54;87.24;97483.53;5018060;28;20408;-83
2022/11/16 03:09:48;;;;;;;9.15;6.78;;;;;;;8.52;86.45;97475.03;5019797;28;20525;-83
2022/11/16 03:12:21;;;;;;;8.70;6.43;;;;;;;8.40;87.62;97482.50;5003854;28;20072;-83
2022/11/16 03:14:52;;;;;;;16.92;8.50;;;;;;;8.11;90.08;97478.75;5022711;28;20449;-83
2022/11/16 03:17:27;;;;;;;15.90;9.52;;;;;;;8.20;89.00;97487.78;5036345;28;20112;-82
2022/11/16 03:20:05;;;;;;;15.23;9.05;;;;;;;8.11;90.12;97482.22;5020421;28;20044;-82
2022/11/16 03:22:44;;;;;;;13.15;8.05;;;;;;;8.09;90.33;97480.88;5019884;28;20032;-82
2022/11/16 03:25:18;;;;;;;17.00;10.07;;;;;;;7.82;92.51;97462.53;5024772;28;21372;-83
2022/11/16 03:27:43;;;;;;;9.95;7.03;;;;;;;8.09;91.02;97475.56;5002242;28;20029;-83
2022/11/16 03:30:22;;;;;;;11.63;8.50;;;;;;;7.90;92.20;97485.13;5028949;28;20029;-82
2022/11/16 03:32:56;;;;;;;15.77;10.23;;;;;;;7.85;91.58;97464.66;5020690;28;20034;-83
2022/11/16 03:35:36;;;;;;;15.73;9.15;;;;;;;8.18;90.45;97481.94;5019122;28;20489;-82
2022/11/16 03:38:04;;;;;;;15.20;10.05;;;;;;;8.26;89.81;97486.75;5023028;28;20120;-83
2022/11/16 03:40:33;;;;;;;21.42;10.55;;;;;;;8.24;90.46;97480.88;5021052;28;20060;-82
2022/11/16 03:43:01;;;;;;;14.88;8.70;;;;;;;8.03;91.19;97463.34;5024848;28;20026;-83
2022/11/16 03:45:27;;;;;;;11.90;7.63;;;;;;;8.09;90.35;97462.28;5017232;28;20414;-83
2022/11/16 03:47:52;;;;;;;17.90;10.02;;;;;;;8.05;92.25;97469.19;5016778;28;20076;-83
2022/11/16 03:50:18;;;;;;;17.75;10.15;;;;;;;8.16;89.56;97462.81;5017582;28;20041;-83
2022/11/16 03:52:43;;;;;;;10.70;7.05;;;;;;;8.38;87.83;97450.06;5017228;28;20155;-83
2022/11/16 03:55:09;;;;;;;12.75;9.40;;;;;;;8.37;88.95;97469.72;5006208;28;20421;-83
2022/11/16 03:57:34;;;;;;;22.02;11.10;;;;;;;7.89;92.47;97459.59;5005945;28;20049;-83
2022/11/16 03:59:59;;;;;;;16.42;10.30;;;;;;;8.02;92.61;97467.06;5025011;28;20493;-82
2022/11/16 04:02:25;;;;;;;8.95;7.10;;;;;;;8.27;89.21;97459.13;5026603;28;20222;-83
2022/11/16 04:24:17;;;;;;;22.13;13.43;;;;;;;7.56;96.04;97450.28;5025965;28;20048;-83
2022/11/16 04:29:32;;;;;;;20.17;13.68;;;;;;;7.34;98.28;97439.06;5019892;28;20044;-83
2022/11/16 04:40:11;;;;;;;18.90;12.10;;;;;;;8.09;91.30;97467.59;5021236;28;20080;-82
2022/11/16 04:42:37;;;;;;;14.68;9.50;;;;;;;8.44;88.45;97474.78;5008753;28;20064;-83
2022/11/16 04:47:50;;;;;;;13.20;8.75;;;;;;;8.45;87.73;97473.72;5018736;28;20036;-82
2022/11/16 04:50:17;;;;;;;12.75;9.30;;;;;;;8.22;91.80;97475.03;5020201;28;20052;-83
2022/11/16 04:52:42;;;;;;;11.40;7.53;;;;;;;8.48;88.52;97478.47;5021338;28;20030;-83
2022/11/16 04:55:09;;;;;;;19.50;10.80;;;;;;;8.41;89.78;97476.09;5017894;28;20055;-83
2022/11/16 04:57:34;;;;;;;26.48;14.40;;;;;;;7.83;95.08;97455.34;5018509;28;20045;-83
2022/11/16 05:00:00;;;;;;;19.70;12.65;;;;;;;7.64;96.81;97454.28;5018361;28;20029;-83
2022/11/16 05:02:25;;;;;;;12.35;8.65;;;;;;;8.26;90.08;97458.31;5021019;28;20072;-82
2022/11/16 05:04:51;;;;;;;11.95;8.60;;;;;;;8.74;86.50;97472.84;5019774;28;20029;-83
2022/11/16 05:07:16;;;;;;;15.73;10.85;;;;;;;8.79;86.00;97472.84;5025760;28;20040;-83
2022/11/16 05:09:43;;;;;;;23.35;12.52;;;;;;;8.11;93.21;97463.59;5025349;28;20116;-83
2022/11/16 05:12:21;;;;;;;14.98;8.80;;;;;;;8.26;90.27;97454.84;5025180;28;20028;-83
2022/11/16 05:14:47;;;;;;;21.80;13.88;;;;;;;7.96;93.69;97442.34;5016809;28;20512;-83
2022/11/16 05:17:13;;;;;;;12.57;8.80;;;;;;;8.14;92.30;97454.31;5015760;28;20037;-83
2022/11/16 05:22:23;;;;;;;12.55;7.60;;;;;;;8.76;86.45;97476.03;5024296;28;20055;-83
2022/11/16 05:24:48;;;;;;;12.52;7.47;;;;;;;8.77;84.79;97456.38;5004862;28;20541;-83
2022/11/16 05:27:16;;;;;;;21.75;12.48;;;;;;;8.41;90.37;97472.66;5006636;28;20042;-83
2022/11/16 05:29:42;;;;;;;25.90;14.10;;;;;;;7.69;96.22;97447.09;5021608;28;20034;-84
2022/11/16 05:32:10;;;;;;;23.65;14.73;;;;;;;7.65;97.50;97442.59;5020460;28;20040;-83
2022/11/16 05:34:35;;;;;;;24.48;14.77;;;;;;;7.50;98.11;97438.84;5012308;28;20083;-83
2022/11/16 05:37:01;;;;;;;23.48;15.30;;;;;;;7.65;99.01;97455.84;5003251;28;20041;-82
2022/11/16 05:39:26;;;;;;;25.52;16.27;;;;;;;7.39;99.33;97437.25;5016728;28;20033;-83
2022/11/16 05:41:52;;;;;;;29.50;16.98;;;;;;;7.66;97.75;97450.31;5021390;28;20421;-83
2022/11/16 05:44:18;;;;;;;15.43;11.00;;;;;;;7.89;95.04;97444.47;5027375;28;20183;-84
2022/11/16 05:46:44;;;;;;;12.30;9.32;;;;;;;8.25;89.96;97446.09;5017292;28;20125;-83
2022/11/16 05:49:10;;;;;;;13.40;9.32;;;;;;;8.36;90.99;97462.84;5030593;28;20034;-83
2022/11/16 05:51:37;;;;;;;15.18;9.75;;;;;;;8.18;92.81;97460.69;5025990;28;20033;-84
2022/11/16 05:54:03;;;;;;;14.05;9.40;;;;;;;8.09;91.32;97427.72;5024064;28;20021;-84
2022/11/16 05:56:29;;;;;;;29.42;15.90;;;;;;;7.97;94.15;97430.66;5025877;28;20037;-83
2022/11/16 05:58:55;;;;;;;25.02;16.20;;;;;;;7.81;95.64;97439.69;5025654;28;20037;-84
2022/11/16 06:01:20;;;;;;;25.52;15.43;;;;;;;7.88;95.27;97442.09;5011041;28;20037;-83
2022/11/16 06:03:46;;;;;;;13.88;9.27;;;;;;;8.27;90.83;97459.13;5009285;28;20468;-83
2022/11/16 06:06:11;;;;;;;25.02;13.98;;;;;;;8.37;91.54;97452.97;5029266;28;20041;-83
2022/11/16 06:08:36;;;;;;;18.48;12.52;;;;;;;8.26;92.08;97447.69;5002264;28;20037;-83
2022/11/16 06:11:03;;;;;;;25.13;15.50;;;;;;;8.23;92.25;97444.75;5020566;28;20094;-83
2022/11/16 06:13:30;;;;;;;23.40;13.48;;;;;;;7.98;94.82;97437.56;5018758;28;20041;-83
2022/11/16 06:15:55;;;;;;;26.50;16.42;;;;;;;7.74;96.35;97438.34;5026715;28;20510;-83
2022/11/16 06:18:21;;;;;;;28.70;17.13;;;;;;;7.81;95.44;97438.91;5005656;28;20196;-83
2022/11/16 06:20:47;;;;;;;25.17;15.20;;;;;;;7.94;94.98;97455.09;5022123;28;20030;-83
2022/11/16 06:23:13;;;;;;;24.95;15.10;;;;;;;7.67;97.27;97427.97;5019197;28;20037;-83
2022/11/16 06:25:39;;;;;;;30.35;16.63;;;;;;;7.53;97.91;97417.06;5008820;28;20053;-83
2022/11/16 06:28:05;;;;;;;15.65;9.50;;;;;;;8.05;94.68;97442.63;5027888;28;20037;-83
2022/11/16 06:30:30;;;;;;;33.17;16.65;;;;;;;8.09;93.14;97436.50;5031381;28;20025;-83
2022/11/16 06:32:56;;;;;;;28.33;16.00;;;;;;;8.03;92.92;97450.06;5033318;28;20025;-83
2022/11/16 06:35:21;;;;;;;17.35;11.48;;;;;;;8.17;91.59;97448.44;5031584;28;20120;-83
2022/11/16 06:37:47;;;;;;;13.90;9.00;;;;;;;8.43;89.64;97447.38;5028453;28;20034;-83
2022/11/16 06:40:12;;;;;;;21.98;13.23;;;;;;;8.09;92.18;97431.19;5029275;28;20041;-85
2022/11/16 06:42:37;;;;;;;20.52;13.98;;;;;;;8.24;92.20;97446.31;5026656;28;20029;-83
2022/11/16 06:45:03;;;;;;;12.43;8.77;;;;;;;8.76;87.61;97457.41;5025987;28;20124;-83
2022/11/16 06:47:29;;;;;;;14.73;9.52;;;;;;;8.47;90.12;97461.75;5028545;28;20033;-84
2022/11/16 06:49:54;;;;;;;19.17;11.93;;;;;;;8.12;92.79;97451.94;5030013;28;20037;-82
2022/11/16 06:52:20;;;;;;;20.10;12.18;;;;;;;8.11;92.55;97446.84;5029735;28;20029;-83
2022/11/16 06:54:45;;;;;;;19.45;11.50;;;;;;;8.22;89.45;97421.88;4993319;28;20030;-83
2022/11/16 06:57:10;;;;;;;18.35;12.25;;;;;;;8.48;88.72;97446.56;5031096;28;20144;-83
2022/11/16 06:59:36;;;;;;;14.95;9.13;;;;;;;8.80;86.78;97463.78;5011927;28;20432;-84
2022/11/16 07:02:03;;;;;;;13.98;9.82;;;;;;;8.66;87.44;97462.78;5025459;28;20033;-83
2022/11/16 07:04:31;;;;;;;16.83;10.15;;;;;;;8.48;89.26;97468.66;5023501;28;20033;-84
2022/11/16 07:06:56;;;;;;;16.75;11.27;;;;;;;8.29;90.34;97454.31;5032837;28;20489;-84
2022/11/16 07:09:21;;;;;;;15.70;9.65;;;;;;;8.21;91.88;97463.59;5014285;28;20037;-84
2022/11/16 07:11:47;;;;;;;13.15;9.00;;;;;;;8.51;87.35;97446.84;5032038;28;20393;-84
2022/11/16 07:14:12;;;;;;;15.20;10.85;;;;;;;8.48;88.94;97463.34;5004513;28;20116;-84
2022/11/16 07:16:37;;;;;;;23.80;15.13;;;;;;;7.93;93.77;97448.19;5025573;28;20029;-83
2022/11/16 07:19:03;;;;;;;26.15;14.70;;;;;;;7.90;95.32;97466.53;5029029;28;20083;-83
2022/11/16 07:21:29;;;;;;;14.77;10.88;;;;;;;8.01;93.52;97457.50;5031900;28;20061;-83
2022/11/16 07:23:54;;;;;;;13.38;9.02;;;;;;;8.39;88.65;97446.31;5012714;28;20032;-83
2022/11/16 07:26:20;;;;;;;19.85;13.38;;;;;;;8.39;88.82;97456.97;5013569;28;20037;-84
2022/11/16 07:28:45;;;;;;;30.25;15.23;;;;;;;7.96;94.92;97460.16;5030218;28;20028;-84
2022/11/16 07:31:12;;;;;;;17.75;10.13;;;;;;;8.23;90.28;97473.97;5030022;28;20029;-84
2022/11/16 07:33:38;;;;;;;20.90;12.90;;;;;;;8.27;90.57;97469.75;5030696;28;20043;-84
2022/11/16 07:36:14;;;;;;;17.25;10.45;;;;;;;8.37;90.17;97474.25;5031229;28;20033;-83
2022/11/16 07:38:40;;;;;;;25.33;16.08;;;;;;;8.10;94.21;97474.50;5031388;28;20040;-84
2022/11/16 07:41:11;;;;;;;23.10;14.68;;;;;;;8.21;92.36;97466.25;5013303;28;20640;-83
2022/11/16 07:43:38;;;;;;;29.15;17.20;;;;;;;7.97;96.59;97475.03;5030197;28;20083;-83
2022/11/16 07:46:13;;;;;;;31.67;18.70;;;;;;;7.86;96.95;97490.19;5027885;28;20108;-83
2022/11/16 07:48:41;;;;;;;34.40;18.13;;;;;;;7.82;96.63;97464.41;5028118;28;20440;-84
2022/11/16 07:51:12;;;;;;;15.05;10.20;;;;;;;8.12;91.62;97475.84;5022897;28;20124;-83
2022/11/16 07:53:38;;;;;;;19.20;13.13;;;;;;;8.07;95.42;97490.97;5024506;28;20029;-84
2022/11/16 07:56:04;;;;;;;22.92;15.40;;;;;;;8.11;93.76;97476.09;5026427;28;20030;-83
2022/11/16 07:58:32;;;;;;;24.35;14.57;;;;;;;8.24;92.55;97486.19;5028421;28;20049;-84
2022/11/16 08:01:04;;;;;;;23.80;14.65;;;;;;;8.19;91.89;97475.56;5022737;28;20033;-84
2022/11/16 08:03:30;;;;;;;15.55;9.48;;;;;;;8.55;88.81;97494.97;5003534;28;20095;-83
2022/11/16 08:06:01;;;;;;;28.20;15.70;;;;;;;8.43;89.69;97481.94;5029095;28;20238;-84
2022/11/16 08:08:27;;;;;;;29.00;15.45;;;;;;;8.47;89.09;97482.22;4996359;28;20034;-84
2022/11/16 08:10:58;;;;;;;26.40;15.45;;;;;;;8.28;92.60;97481.97;5024293;28;20032;-84
2022/11/16 08:13:23;;;;;;;24.70;15.88;;;;;;;8.33;92.92;97484.63;5028203;28;20033;-83
2022/11/16 08:15:49;;;;;;;28.60;16.52;;;;;;;8.37;91.79;97479.56;5022819;28;20505;-84
2022/11/16 08:18:14;;;;;;;29.48;16.88;;;;;;;8.35;93.29;97485.16;5003088;28;20080;-83
2022/11/16 08:20:39;;;;;;;22.10;14.10;;;;;;;8.38;93.85;97489.94;4996063;28;20029;-84
2022/11/16 08:23:05;;;;;;;17.63;9.85;;;;;;;8.60;89.96;97498.44;5006743;28;20397;-83
2022/11/16 08:25:30;;;;;;;25.65;14.88;;;;;;;8.44;93.41;97494.19;5028796;28;20096;-83
2022/11/16 08:27:55;;;;;;;16.42;10.65;;;;;;;8.66;88.76;97494.69;5007231;28;20116;-84
2022/11/16 08:30:21;;;;;;;13.50;9.32;;;;;;;8.67;89.20;97490.19;5024077;28;20044;-84
2022/11/16 08:32:46;;;;;;;17.55;10.98;;;;;;;8.72;87.58;97477.66;5005589;28;20498;-83
2022/11/16 08:35:12;;;;;;;19.55;12.55;;;;;;;8.60;91.90;97500.28;4996152;28;20565;-83
2022/11/16 08:37:37;;;;;;;28.88;17.50;;;;;;;8.15;95.75;97487.78;5011433;28;20029;-84
2022/11/16 08:40:03;;;;;;;25.15;14.65;;;;;;;8.03;97.34;97492.56;5009621;28;20526;-83
2022/11/16 08:42:28;;;;;;;31.67;17.38;;;;;;;7.92;98.77;97496.28;5017208;28;20397;-84
2022/11/16 08:44:53;;;;;;;17.77;11.18;;;;;;;8.29;93.60;97502.97;4995454;28;20045;-82
2022/11/16 08:47:19;;;;;;;18.90;12.13;;;;;;;8.15;95.59;97466.53;5019419;28;20033;-83
2022/11/16 08:49:45;;;;;;;34.53;20.38;;;;;;;8.16;97.32;97505.34;5027196;28;20536;-83
2022/11/16 08:52:11;;;;;;;32.60;18.77;;;;;;;8.20;96.24;97503.72;5029978;28;20032;-83
2022/11/16 08:54:36;;;;;;;36.65;19.38;;;;;;;8.08;97.25;97511.19;5028634;28;20029;-83
2022/11/16 08:57:02;;;;;;;31.67;19.75;;;;;;;7.99;99.57;97505.59;5013680;28;20112;-83
2022/11/16 08:59:27;;;;;;;18.55;12.63;;;;;;;8.35;94.04;97511.72;5025211;28;20029;-83
2022/11/16 09:01:52;;;;;;;29.65;18.42;;;;;;;8.31;94.27;97500.03;5009201;28;20033;-83
2022/11/16 09:04:18;;;;;;;17.05;11.07;;;;;;;8.29;93.26;97487.03;5020570;28;20107;-83
2022/11/16 09:06:44;;;;;;;26.52;15.90;;;;;;;8.15;97.07;97515.16;5009543;28;20128;-83
2022/11/16 09:09:10;;;;;;;29.88;18.17;;;;;;;8.38;94.77;97515.72;5030709;28;20040;-83
2022/11/16 09:11:35;;;;;;;32.10;18.35;;;;;;;8.35;95.32;97511.72;5029439;28;20441;-83
2022/11/16 09:14:01;;;;;;;25.45;14.55;;;;;;;8.62;91.74;97514.91;5032012;28;20029;-84
2022/11/16 09:16:26;;;;;;;31.63;19.35;;;;;;;8.64;91.25;97507.47;5004145;28;20033;-83
2022/11/16 09:18:53;;;;;;;34.42;20.27;;;;;;;8.40;95.73;97517.06;5003836;28;20026;-83
2022/11/16 09:21:21;;;;;;;21.25;12.65;;;;;;;8.51;93.48;97523.16;5024881;28;20040;-83
2022/11/16 09:23:48;;;;;;;25.70;15.00;;;;;;;8.42;94.56;97508.81;5026621;28;20162;-83
2022/11/16 09:26:14;;;;;;;34.33;18.92;;;;;;;8.22;96.75;97509.56;5010990;28;20033;-83
2022/11/16 09:28:39;;;;;;;27.33;16.40;;;;;;;8.54;94.88;97522.63;5026206;28;20041;-83
2022/11/16 09:31:05;;;;;;;18.95;12.23;;;;;;;8.57;91.89;97504.28;5026531;28;20095;-83
2022/11/16 09:33:32;;;;;;;23.33;14.65;;;;;;;8.57;91.19;97498.16;5022713;28;20041;-83
2022/11/16 09:36:06;;;;;;;24.15;14.88;;;;;;;8.88;90.74;97524.44;5027437;28;20025;-83
2022/11/16 09:38:33;;;;;;;18.45;11.00;;;;;;;8.77;90.40;97503.44;4988479;28;20120;-83
2022/11/16 09:40:59;;;;;;;29.98;17.83;;;;;;;8.59;95.22;97520.75;5008702;28;20747;-83
2022/11/16 09:43:30;;;;;;;25.20;14.10;;;;;;;8.63;94.76;97524.47;5027844;28;20045;-83
2022/11/16 09:46:26;;;;;;;23.98;15.57;;;;;;;8.53;94.02;97529.81;5027118;28;20040;-83
2022/11/16 09:48:55;;;;;;;29.92;17.90;;;;;;;8.63;93.08;97508.50;5009452;28;20067;-83
2022/11/16 09:51:22;;;;;;;20.38;13.00;;;;;;;8.64;94.58;97522.63;5029172;28;20477;-83
2022/11/16 09:54:13;;;;;;;16.60;10.52;;;;;;;8.93;90.31;97523.63;5030053;28;20025;-83
2022/11/16 09:56:41;;;;;;;18.33;10.63;;;;;;;8.97;90.43;97514.84;5023661;28;20040;-83
2022/11/16 09:59:06;;;;;;;16.17;11.65;;;;;;;8.91;91.44;97521.22;5022912;28;20025;-84
2022/11/16 10:01:41;;;;;;;24.25;15.10;;;;;;;8.92;91.61;97524.69;5031139;28;20378;-83
2022/11/16 10:04:10;;;;;;;23.98;15.90;;;;;;;8.98;91.76;97527.06;5029261;28;20036;-83
2022/11/16 10:07:01;;;;;;;17.20;11.43;;;;;;;9.09;89.77;97525.16;5031630;28;20033;-83
2022/11/16 10:09:29;;;;;;;21.70;14.82;;;;;;;8.84;92.31;97499.44;5028154;28;20445;-83
2022/11/16 10:12:24;;;;;;;14.52;10.38;;;;;;;9.16;89.43;97520.38;5029373;28;20172;-83
2022/11/16 10:15:22;;;;;;;16.33;11.23;;;;;;;8.87;92.55;97519.38;5030334;28;20048;-83
2022/11/16 10:17:56;;;;;;;17.50;10.95;;;;;;;9.14;90.16;97519.03;5026259;28;20072;-83
2022/11/16 10:20:50;;;;;;;17.60;12.23;;;;;;;8.96;92.25;97521.22;5030908;28;20354;-83
2022/11/16 10:23:31;;;;;;;15.98;10.52;;;;;;;8.87;92.59;97514.84;5029252;28;20568;-84
2022/11/16 10:26:19;;;;;;;20.73;12.85;;;;;;;8.77;94.17;97514.88;5029226;28;20025;-83
2022/11/16 10:29:39;;;;;;;17.45;12.05;;;;;;;8.93;92.24;97497.03;5028789;28;20046;-83
2022/11/16 10:32:16;;;;;;;12.75;9.38;;;;;;;8.88;91.33;97487.19;5025160;28;20087;-83
2022/11/16 10:34:49;;;;;;;20.65;14.48;;;;;;;8.93;93.77;97503.13;5026429;28;20532;-83
2022/11/16 10:37:15;;;;;;;25.17;15.82;;;;;;;9.04;92.78;97487.94;5019516;28;20037;-83
2022/11/16 10:39:41;;;;;;;13.30;9.25;;;;;;;9.22;89.89;97495.31;5012468;28;20358;-83
2022/11/16 10:42:14;;;;;;;19.15;13.77;;;;;;;8.96;94.44;97486.63;5013582;28;20489;-83
2022/11/16 10:44:49;;;;;;;16.05;11.25;;;;;;;8.84;94.52;97480.81;5032129;28;20547;-83
2022/11/16 10:47:21;;;;;;;15.93;10.27;;;;;;;9.23;91.65;97496.91;5026864;28;20029;-84
2022/11/16 10:49:56;;;;;;;14.13;9.85;;;;;;;9.47;89.42;97492.56;5032510;28;20029;-83
2022/11/16 10:52:22;;;;;;;17.83;10.23;;;;;;;9.41;88.68;97477.66;5031207;28;20052;-84
2022/11/16 10:54:48;;;;;;;15.90;10.52;;;;;;;9.41;89.99;97487.53;5029921;28;20021;-83
2022/11/16 10:57:14;;;;;;;20.33;12.70;;;;;;;9.21;90.97;97477.75;5037253;28;20041;-83
2022/11/16 10:59:48;;;;;;;19.35;14.07;;;;;;;9.27;92.53;97491.84;5032605;28;20033;-83
2022/11/16 11:02:33;;;;;;;13.70;9.45;;;;;;;9.54;88.49;97487.72;5026541;28;20045;-83
2022/11/16 11:05:19;;;;;;;21.20;13.70;;;;;;;9.29;92.09;97490.50;5029620;28;20154;-83
2022/11/16 11:08:03;;;;;;;13.00;9.48;;;;;;;9.33;90.72;97480.09;5002770;28;20489;-83
2022/11/16 11:10:31;;;;;;;15.02;10.38;;;;;;;9.44;89.46;97476.31;5003792;28;20125;-83
2022/11/16 11:13:03;;;;;;;14.18;9.80;;;;;;;9.64;88.23;97492.19;5028200;28;20036;-84
2022/11/16 11:15:28;;;;;;;13.02;9.30;;;;;;;9.54;88.09;97484.25;5022207;28;20046;-83
2022/11/16 11:18:18;;;;;;;18.13;12.50;;;;;;;9.55;88.75;97491.97;5010822;28;20030;-83
2022/11/16 11:20:47;;;;;;;19.10;12.85;;;;;;;9.15;93.16;97483.38;5022527;28;20059;-83
2022/11/16 11:23:25;;;;;;;19.85;13.45;;;;;;;9.21;91.84;97468.97;5007227;28;20090;-83
2022/11/16 11:25:56;;;;;;;14.25;9.98;;;;;;;9.43;90.27;97488.03;5027841;28;20041;-84
2022/11/16 11:28:33;;;;;;;12.23;8.10;;;;;;;9.50;88.91;97483.22;5027187;28;20037;-83
2022/11/16 11:31:24;;;;;;;20.95;13.38;;;;;;;9.15;93.10;97478.84;5024367;28;20064;-84
2022/11/16 11:34:00;;;;;;;18.58;13.48;;;;;;;9.05;93.93;97477.03;5025119;28;20037;-83
2022/11/16 11:36:31;;;;;;;;;;;;;;;9.34;89.76;97487.81;5011643;28;20100;-83
2022/11/16 11:39:07;;;;;;;17.90;12.27;;;;;;;9.05;95.68;97487.66;5025992;28;19913;-83
2022/11/16 11:41:34;;;;;;;;;;;;;;;9.17;94.91;97491.88;5027091;28;20407;-83
2022/11/16 11:44:00;;;;;;;;;;;;;;;9.40;90.10;97486.72;5019417;28;19964;-84
2022/11/16 11:46:29;;;;;;;15.60;10.25;;;;;;;9.54;88.26;97476.28;5026593;28;19921;-83
2022/11/16 11:49:17;;;;;;;12.82;9.50;;;;;;;9.57;88.39;97470.38;5023141;28;20061;-83
2022/11/16 11:51:45;;;;;;;12.07;8.82;;;;;;;9.76;87.46;97485.44;5027517;28;20481;-84
2022/11/16 11:54:22;;;;;;;10.52;7.65;;;;;;;9.73;86.56;97469.22;5027298;28;20036;-83
2022/11/16 11:56:48;;;;;;;15.48;11.75;;;;;;;9.66;88.43;97463.41;5027163;28;20485;-84
2022/11/16 11:59:18;;;;;;;13.23;8.95;;;;;;;9.59;89.02;97466.38;5005936;28;20021;-84
2022/11/16 12:02:22;;;;;;;11.13;8.15;;;;;;;9.86;87.53;97483.78;5008063;28;20048;-84
2022/11/16 12:05:24;;;;;;;24.58;12.10;;;;;;;9.73;90.29;97479.88;5026225;28;20025;-83
2022/11/16 12:08:11;;;;;;;12.20;8.82;;;;;;;9.75;88.28;97475.06;5029463;28;20029;-83
2022/11/16 12:11:01;;;;;;;15.85;11.27;;;;;;;9.83;88.58;97469.13;5027967;28;20037;-83
2022/11/16 12:13:50;;;;;;;13.75;9.73;;;;;;;9.98;88.33;97479.69;5008432;28;20034;-83
2022/11/16 12:16:54;;;;;;;14.95;12.13;;;;;;;9.66;93.33;97474.06;5041630;28;20132;-83
2022/11/16 12:19:39;;;;;;;11.40;8.50;;;;;;;10.03;88.08;97469.00;5016407;28;20045;-84
2022/11/16 12:22:26;;;;;;;13.02;9.23;;;;;;;10.02;87.94;97475.41;5020733;28;20057;-83
2022/11/16 12:25:10;;;;;;;11.60;8.00;;;;;;;10.03;88.15;97479.66;5024933;28;20025;-84